Flight Track Log - Related Links

Times and Time Zones

All times are in EST time to prevent confusion due to time zone crossing. See the EJA829P flight status page for this flight to view local times or setup timezone preferences in your user account.

Time Position Orientation Groundspeed Altitude Reporting Facility
EST Latitude Longitude Course Direction KTS MPH feet Rate Location/Type
Tue 07:36:00 AM 42.8747 -85.5681 187° South 204 235 3,000  Level Chicago Center
Tue 07:37:02 AM 42.8358 -85.6283 229° Southwest 239 275 4,100 2,146 Climbing Chicago Center
Tue 07:38:03 AM 42.7667 -85.6308 182° South 247 284 7,400 2,585 Climbing Chicago Center
Tue 07:39:05 AM 42.6950 -85.6406 186° South 255 293 9,400 1,951 Climbing Chicago Center
Tue 07:40:06 AM 42.6025 -85.6572 188° South 273 314 11,400 1,951 Climbing Chicago Center
Tue 07:41:00 AM 42.4368 -85.5453 187° South  Level Estimated
Tue 07:41:08 AM 42.5181 -85.6733 188° South 302 348 13,400  Level Chicago Center
Tue 07:42:10 AM 42.4297 -85.6922 189° South 318 366 15,900 2,439 Climbing Chicago Center
Tue 07:43:11 AM 42.3400 -85.7097 188° South 323 372 18,400 2,683 Climbing Chicago Center
Tue 07:44:13 AM 42.2517 -85.7261 188° South 322 371 21,400 2,878 Climbing Chicago Center
Tue 07:45:14 AM 42.1656 -85.7425 188° South 314 361 24,300 2,244 Climbing Chicago Center
Tue 07:46:16 AM 42.0750 -85.7606 188° South 327 376 26,000 823 Climbing Chicago Center
Tue 07:47:18 AM 41.9642 -85.7831 189° South 371 427 26,000  Level Chicago Center
Tue 07:48:19 AM 41.8553 -85.7600 171° South 423 487 26,000  Level Chicago Center
Tue 07:49:21 AM 41.7506 -85.6889 153° Southeast 426 490 26,000  Level Chicago Center
Tue 07:50:23 AM 41.6258 -85.6047 153° Southeast 427 491 26,000  Level Chicago Center
Tue 07:51:25 AM 41.5228 -85.5322 152° Southeast 429 494 26,000  Level Chicago Center
Tue 07:52:26 AM 41.4164 -85.5006 167° South 398 458 26,000  Level Chicago Center
Tue 07:53:28 AM 41.3164 -85.5058 182° South 362 417 26,000 -532 Level Chicago Center
Tue 07:54:30 AM 41.2250 -85.5103 182° South 332 382 24,900 -968 Descending Chicago Center
Tue 07:55:32 AM 41.1122 -85.5164 182° South 339 390 24,000 -488 Descending Chicago Center
Tue 07:56:33 AM 41.0097 -85.5222 182° South 370 426 23,900 -488 Descending Chicago Center
Tue 07:57:35 AM 40.9033 -85.5269 182° South 383 441 23,000 -919 Descending Chicago Center
Tue 07:58:37 AM 40.7997 -85.5319 182° South 376 433 22,000 -484 Descending Chicago Center
Tue 07:59:39 AM 40.7050 -85.5361 182° South 347 399 22,000  Level Chicago Center
Tue 08:00:40 AM 40.5961 -85.5425 183° South 353 406 22,000  Level Chicago Center
Tue 08:01:42 AM 40.4956 -85.5467 182° South 360 414 22,000  Level Chicago Center
Tue 08:02:44 AM 40.3964 -85.5508 182° South 357 411 22,000 -774 Level Chicago Center
Tue 08:03:46 AM 40.2950 -85.5569 183° South 365 420 20,400 -1,500 Descending Chicago Center
Tue 08:04:48 AM 40.1917 -85.5617 182° South 371 427 18,900 -1,268 Descending Chicago Center
Tue 08:05:49 AM 40.0931 -85.5644 181° South 356 410 17,800 -1,415 Descending Chicago Center
Tue 08:06:51 AM 39.9792 -85.5700 182° South 342 394 16,000 -1,597 Descending Chicago Center
Tue 08:07:53 AM 39.8842 -85.5747 182° South 341 392 14,500 -968 Descending Chicago Center
Tue 08:08:55 AM 39.7942 -85.5783 182° South 329 379 14,000 -242 Descending Chicago Center
Tue 08:09:57 AM 39.7053 -85.5833 182° South 322 371 14,000  Level Chicago Center
Tue 08:10:59 AM 39.6150 -85.5864 181° South 323 372 14,000  Level Chicago Center
Tue 08:12:01 AM 39.5250 -85.5922 183° South 323 372 14,000  Level Chicago Center
Tue 08:13:16 AM 39.4011 -85.5983 182° South 320 368 14,000  Level Indianapolis Center
Tue 08:14:18 AM 39.3133 -85.6028 182° South 319 367 14,000  Level Indianapolis Center
Tue 08:15:20 AM 39.2328 -85.6058 182° South 300 345 14,000  Level Indianapolis Center
Tue 08:16:22 AM 39.1569 -85.6097 182° South 277 319 14,000  Level Indianapolis Center
Tue 08:17:23 AM 39.0792 -85.6125 182° South 278 320 14,000  Level Indianapolis Center
Tue 08:18:25 AM 39.0033 -85.6311 191° South 277 319 14,000 -677 Level Indianapolis Center
Tue 08:19:27 AM 38.9261 -85.6500 191° South 281 323 12,600 -1,887 Descending Indianapolis Center
Tue 08:20:29 AM 38.8300 -85.6753 192° South 293 337 10,100 -2,177 Descending Indianapolis Center
Tue 08:21:31 AM 38.7572 -85.6883 188° South 268 308 8,100 -1,951 Descending Indianapolis Center
Tue 08:22:32 AM 38.6878 -85.7006 188° South 253 291 6,100 -1,902 Descending Indianapolis Center
Tue 08:23:34 AM 38.6183 -85.7122 187° South 259 298 4,200 -1,016 Descending Indianapolis Center
Tue 08:24:36 AM 38.5378 -85.7261 188° South 258 297 4,000 -194 Descending Indianapolis Center

Login

Don't have an account? Register now (free) for customized features, flight alerts, and more!